createdAt,value
2022-08-16T00:00:27.274Z,13.73
2022-08-16T00:02:54.781Z,12.68
2022-08-16T00:05:23.180Z,11.98
2022-08-16T00:07:56.472Z,12.55
2022-08-16T00:10:26.694Z,13.85
2022-08-16T00:12:55.555Z,12.30
2022-08-16T00:15:51.353Z,11.60
2022-08-16T00:18:18.638Z,13.77
2022-08-16T00:20:48.573Z,14.38
2022-08-16T00:23:17.366Z,12.80
2022-08-16T00:26:33.701Z,12.80
2022-08-16T00:28:37.567Z,13.55
2022-08-16T00:31:04.154Z,14.73
2022-08-16T00:33:31.050Z,14.68
2022-08-16T00:35:57.738Z,13.60
2022-08-16T00:38:40.282Z,13.35
2022-08-16T00:41:08.492Z,13.57
2022-08-16T00:43:43.407Z,16.05
2022-08-16T00:46:33.724Z,13.80
2022-08-16T00:49:02.554Z,13.18
2022-08-16T00:51:29.429Z,12.63
2022-08-16T00:53:56.685Z,12.98
2022-08-16T00:56:57.194Z,13.23
2022-08-16T00:59:16.193Z,14.40
2022-08-16T01:01:44.642Z,12.23
2022-08-16T01:04:30.192Z,13.30
2022-08-16T01:07:02.109Z,12.85
2022-08-16T01:09:33.518Z,13.75
2022-08-16T01:12:08.464Z,15.18
2022-08-16T01:14:43.578Z,13.70
2022-08-16T01:17:13.826Z,13.05
2022-08-16T01:19:45.602Z,12.40
2022-08-16T01:22:47.645Z,14.43
2022-08-16T01:25:34.186Z,13.73
2022-08-16T01:28:03.968Z,14.00
2022-08-16T01:30:39.895Z,14.45
2022-08-16T01:33:17.201Z,13.73
2022-08-16T01:35:57.199Z,13.73
2022-08-16T01:38:34.675Z,13.10
2022-08-16T01:41:11.083Z,13.38
2022-08-16T01:43:42.805Z,13.50
2022-08-16T01:46:40.242Z,14.05
2022-08-16T01:49:21.575Z,14.93
2022-08-16T01:51:59.420Z,14.68
2022-08-16T01:54:37.495Z,14.70
2022-08-16T01:57:05.718Z,14.52
2022-08-16T01:59:33.913Z,16.80
2022-08-16T02:02:01.292Z,13.38
2022-08-16T02:04:48.410Z,15.60
2022-08-16T02:07:23.782Z,14.85
2022-08-16T02:09:58.577Z,13.55
2022-08-16T02:12:43.557Z,14.60
2022-08-16T02:15:24.787Z,14.32
2022-08-16T02:17:55.945Z,13.10
2022-08-16T02:20:26.309Z,14.43
2022-08-16T02:22:55.874Z,12.32
2022-08-16T02:25:22.682Z,13.32
2022-08-16T02:27:51.095Z,12.65
2022-08-16T02:30:36.047Z,13.20
2022-08-16T02:33:05.572Z,14.32
2022-08-16T02:35:34.279Z,12.48
2022-08-16T02:38:17.033Z,15.65
2022-08-16T02:40:45.625Z,13.52
2022-08-16T02:43:13.579Z,15.20
2022-08-16T02:45:41.874Z,13.23
2022-08-16T02:48:30.014Z,14.20
2022-08-16T02:51:10.228Z,14.73
2022-08-16T02:53:45.970Z,13.20
2022-08-16T02:56:18.299Z,13.25
2022-08-16T02:58:47.155Z,15.10
2022-08-16T03:01:24.924Z,13.60
2022-08-16T03:04:39.828Z,12.77
2022-08-16T03:06:56.870Z,13.95
2022-08-16T03:09:44.197Z,15.25
2022-08-16T03:12:16.549Z,12.32
2022-08-16T03:14:46.622Z,13.35
2022-08-16T03:17:14.445Z,13.50
2022-08-16T03:19:48.120Z,13.57
2022-08-16T03:22:28.287Z,14.55
2022-08-16T03:25:02.332Z,14.10
2022-08-16T03:27:33.393Z,14.23
2022-08-16T03:30:16.044Z,13.75
2022-08-16T03:32:47.337Z,13.57
2022-08-16T03:35:14.916Z,13.40
2022-08-16T03:38:01.583Z,13.10
2022-08-16T03:40:35.287Z,15.38
2022-08-16T03:43:19.620Z,14.43
2022-08-16T03:45:53.428Z,15.93
2022-08-16T03:48:36.283Z,16.83
2022-08-16T03:51:12.250Z,14.50
2022-08-16T03:53:45.925Z,14.75
2022-08-16T03:56:30.362Z,15.27
2022-08-16T03:58:58.181Z,14.82
2022-08-16T04:01:29.906Z,15.65
2022-08-16T04:03:57.351Z,13.82
2022-08-16T04:06:24.034Z,15.55
2022-08-16T04:08:51.326Z,15.93
2022-08-16T04:11:18.518Z,13.45
2022-08-16T04:14:00.922Z,16.20
2022-08-16T04:16:37.833Z,15.40
2022-08-16T04:19:25.930Z,15.10
2022-08-16T04:22:00.711Z,14.65
2022-08-16T04:24:54.093Z,15.60
2022-08-16T04:27:31.496Z,13.50
2022-08-16T04:30:02.751Z,17.50
2022-08-16T04:32:33.357Z,15.00
2022-08-16T04:35:08.480Z,15.07
2022-08-16T04:37:42.233Z,14.30
2022-08-16T04:40:29.407Z,14.50
2022-08-16T04:42:59.596Z,15.13
2022-08-16T04:45:36.026Z,17.35
2022-08-16T04:48:07.099Z,14.98
2022-08-16T04:50:43.648Z,14.57
2022-08-16T04:53:16.986Z,15.30
2022-08-16T04:55:53.141Z,16.30
2022-08-16T04:58:44.434Z,14.88
2022-08-16T05:01:08.656Z,15.15
2022-08-16T05:03:41.610Z,17.35
2022-08-16T05:06:22.657Z,14.63
2022-08-16T05:09:09.518Z,19.85
2022-08-16T05:11:36.578Z,14.32
2022-08-16T05:14:07.060Z,15.90
2022-08-16T05:16:35.652Z,15.35
2022-08-16T05:19:13.205Z,13.68
2022-08-16T05:21:54.241Z,18.80
2022-08-16T05:24:24.628Z,17.23
2022-08-16T05:26:52.103Z,16.02
2022-08-16T05:29:20.550Z,18.15
2022-08-16T05:32:32.351Z,16.92
2022-08-16T05:34:53.591Z,16.75
2022-08-16T05:37:24.411Z,22.10
2022-08-16T05:39:51.922Z,19.63
2022-08-16T05:42:22.136Z,18.50
2022-08-16T05:45:06.933Z,15.93
2022-08-16T05:47:34.853Z,17.23
2022-08-16T05:50:10.594Z,16.58
2022-08-16T05:52:46.377Z,15.55
2022-08-16T05:55:13.587Z,18.40
2022-08-16T05:57:40.127Z,16.77
2022-08-16T06:00:12.033Z,16.80
2022-08-16T06:02:45.055Z,17.13
2022-08-16T06:05:41.539Z,16.70
2022-08-16T06:08:08.909Z,18.05
2022-08-16T06:11:02.564Z,16.73
2022-08-16T06:13:37.754Z,16.90
2022-08-16T06:16:09.557Z,17.05
2022-08-16T06:18:45.539Z,17.23
2022-08-16T06:21:13.725Z,14.75
2022-08-16T06:23:51.082Z,14.75
2022-08-16T06:26:21.347Z,15.48
2022-08-16T06:28:48.095Z,15.20
2022-08-16T06:31:24.822Z,19.20
2022-08-16T06:33:54.200Z,17.38
2022-08-16T06:36:23.985Z,13.63
2022-08-16T06:39:12.208Z,15.93
2022-08-16T06:41:51.372Z,14.82
2022-08-16T06:44:32.051Z,13.95
2022-08-16T06:47:02.831Z,16.63
2022-08-16T06:49:30.001Z,16.73
2022-08-16T06:52:03.089Z,12.93
2022-08-16T06:54:34.273Z,15.07
2022-08-16T06:57:01.541Z,14.27
2022-08-16T06:59:28.198Z,15.65
2022-08-16T07:01:59.556Z,12.30
2022-08-16T07:04:33.317Z,13.45
2022-08-16T07:07:14.359Z,14.05
2022-08-16T07:09:41.817Z,14.40
2022-08-16T07:12:09.357Z,12.93
2022-08-16T07:14:41.089Z,14.15
2022-08-16T07:17:12.598Z,12.15
2022-08-16T07:20:29.358Z,11.90
2022-08-16T07:22:42.452Z,11.65
2022-08-16T07:25:23.123Z,12.10
2022-08-16T07:27:51.002Z,12.32
2022-08-16T07:30:38.440Z,11.35
2022-08-16T07:33:09.288Z,10.52
2022-08-16T07:35:44.434Z,11.57
2022-08-16T07:38:19.908Z,11.30
2022-08-16T07:40:59.443Z,11.85
2022-08-16T07:43:29.000Z,10.27
2022-08-16T07:46:01.600Z,13.65
2022-08-16T07:48:31.298Z,11.98
2022-08-16T07:51:00.321Z,10.38
2022-08-16T07:53:31.742Z,10.98
2022-08-16T07:56:02.196Z,12.95
2022-08-16T07:58:36.468Z,10.82
2022-08-16T08:01:12.601Z,9.45
2022-08-16T08:03:49.030Z,10.18
2022-08-16T08:06:20.069Z,10.18
2022-08-16T08:08:51.479Z,10.63
2022-08-16T08:11:21.911Z,8.10
2022-08-16T08:13:53.608Z,9.90
2022-08-16T08:16:21.976Z,10.73
2022-08-16T08:19:01.164Z,10.20
2022-08-16T08:22:00.848Z,10.77
2022-08-16T08:24:15.852Z,11.88
2022-08-16T08:26:44.499Z,11.48
2022-08-16T08:29:23.179Z,9.40
2022-08-16T08:31:52.460Z,11.23
2022-08-16T08:34:21.258Z,9.38
2022-08-16T08:36:50.062Z,11.23
2022-08-16T08:39:31.401Z,9.73
2022-08-16T08:42:00.269Z,9.30
2022-08-16T08:44:31.894Z,8.85
2022-08-16T08:47:09.230Z,13.95
2022-08-16T08:52:33.798Z,11.65
2022-08-16T08:55:10.755Z,10.38
2022-08-16T08:57:41.017Z,10.77
2022-08-16T09:00:21.484Z,9.60
2022-08-16T09:02:56.782Z,10.57
2022-08-16T09:05:26.174Z,10.82
2022-08-16T09:08:05.882Z,9.23
2022-08-16T09:10:58.870Z,11.80
2022-08-16T09:13:33.101Z,9.70
2022-08-16T09:16:00.296Z,13.77
2022-08-16T09:18:35.263Z,11.10
2022-08-16T09:21:07.041Z,14.45
2022-08-16T09:23:37.467Z,10.70
2022-08-16T09:26:44.574Z,10.95
2022-08-16T09:29:14.670Z,11.13
2022-08-16T09:31:42.093Z,8.95
2022-08-16T09:34:09.336Z,9.30
2022-08-16T09:36:37.383Z,12.13
2022-08-16T09:39:16.347Z,9.70
2022-08-16T09:41:53.191Z,10.52
2022-08-16T09:45:10.780Z,11.32
2022-08-16T09:47:10.380Z,11.10
2022-08-16T09:49:37.566Z,10.30
2022-08-16T09:52:09.464Z,8.88
2022-08-16T09:54:37.811Z,10.23
2022-08-16T09:57:04.929Z,8.85
2022-08-16T09:59:38.409Z,9.00
2022-08-16T10:04:53.008Z,11.73
2022-08-16T10:07:21.908Z,8.65
2022-08-16T10:09:55.324Z,9.50
2022-08-16T10:12:55.936Z,10.25
2022-08-16T10:15:24.603Z,10.40
2022-08-16T10:18:01.498Z,11.30
2022-08-16T10:20:32.487Z,9.75
2022-08-16T10:23:06.841Z,9.38
2022-08-16T10:27:22.007Z,10.10
2022-08-16T10:28:32.318Z,9.25
2022-08-16T10:31:07.187Z,9.55
2022-08-16T10:33:35.320Z,9.77
2022-08-16T10:36:12.343Z,9.52
2022-08-16T10:38:58.847Z,9.48
2022-08-16T10:41:25.313Z,11.35
2022-08-16T10:43:52.096Z,9.30
2022-08-16T10:46:33.736Z,11.73
2022-08-16T10:49:05.934Z,10.35
2022-08-16T10:51:34.433Z,10.25
2022-08-16T10:54:58.448Z,11.25
2022-08-16T10:57:28.050Z,10.80
2022-08-16T11:02:59.982Z,11.80
2022-08-16T11:05:16.744Z,10.45
2022-08-16T11:07:51.931Z,8.55
2022-08-16T11:19:06.001Z,11.55
2022-08-16T11:22:11.139Z,11.00
2022-08-16T11:24:41.350Z,10.80
2022-08-16T11:27:20.431Z,10.00
2022-08-16T11:29:49.630Z,11.10
2022-08-16T11:32:20.119Z,8.98
2022-08-16T11:35:09.779Z,10.48
2022-08-16T11:38:23.626Z,10.98
2022-08-16T11:40:32.295Z,10.00
2022-08-16T11:42:59.982Z,8.70
2022-08-16T11:45:26.819Z,10.82
2022-08-16T11:47:54.536Z,13.80
2022-08-16T11:50:21.760Z,9.57
2022-08-16T11:52:48.213Z,11.48
2022-08-16T11:55:14.745Z,8.98
2022-08-16T11:57:41.382Z,11.18
2022-08-16T12:00:49.996Z,10.27
2022-08-16T12:03:00.738Z,8.32
2022-08-16T12:05:28.097Z,8.98
2022-08-16T12:07:55.517Z,10.20
2022-08-16T12:10:24.254Z,9.30
2022-08-16T12:12:54.606Z,8.10
2022-08-16T12:15:27.376Z,10.10
2022-08-16T12:17:57.667Z,8.52
2022-08-16T12:20:32.079Z,9.18
2022-08-16T12:25:29.211Z,11.77
2022-08-16T12:27:57.164Z,8.07
2022-08-16T12:30:32.183Z,8.02
2022-08-16T12:33:03.177Z,8.27
2022-08-16T12:35:32.526Z,8.32
2022-08-16T12:38:01.194Z,9.48
2022-08-16T12:40:50.920Z,9.63
2022-08-16T12:43:23.489Z,7.25
2022-08-16T12:45:53.571Z,7.45
2022-08-16T12:48:43.281Z,10.20
2022-08-16T12:51:19.900Z,10.20
2022-08-16T12:53:51.726Z,7.53
2022-08-16T12:56:20.153Z,7.82
2022-08-16T12:58:51.969Z,8.13
2022-08-16T13:01:22.678Z,8.05
2022-08-16T13:03:59.153Z,7.78
2022-08-16T13:06:37.131Z,8.82
2022-08-16T13:09:20.225Z,11.05
2022-08-16T13:12:19.612Z,11.57
2022-08-16T13:14:47.814Z,13.32
2022-08-16T13:17:26.329Z,10.07
2022-08-16T13:20:07.178Z,10.90
2022-08-16T13:22:42.153Z,11.32
2022-08-16T13:25:10.569Z,10.80
2022-08-16T13:28:15.097Z,9.68
2022-08-16T13:30:37.862Z,11.35
2022-08-16T13:33:29.566Z,15.15
2022-08-16T13:36:00.172Z,11.80
2022-08-16T13:38:36.399Z,12.00
2022-08-16T13:41:08.333Z,9.27
2022-08-16T13:43:37.754Z,10.68
2022-08-16T13:46:04.986Z,10.02
2022-08-16T13:48:43.033Z,10.70
2022-08-16T13:51:16.835Z,11.55
2022-08-16T13:53:49.658Z,13.02
2022-08-16T13:56:34.246Z,9.63
2022-08-16T13:59:06.181Z,9.45
2022-08-16T14:01:44.013Z,13.68
2022-08-16T14:04:12.281Z,9.50
2022-08-16T14:06:52.761Z,10.50
2022-08-16T14:09:20.206Z,10.68
2022-08-16T14:11:46.709Z,9.82
2022-08-16T14:14:16.486Z,10.50
2022-08-16T14:16:44.669Z,10.05
2022-08-16T14:19:13.782Z,11.85
2022-08-16T14:21:55.896Z,10.15
2022-08-16T14:24:30.041Z,9.38
2022-08-16T14:26:57.703Z,9.27
2022-08-16T14:29:24.287Z,9.98
2022-08-16T14:31:58.877Z,9.70
2022-08-16T14:34:25.766Z,10.50
2022-08-16T14:36:55.604Z,10.48
2022-08-16T14:39:22.462Z,9.63
2022-08-16T14:41:49.289Z,11.65
2022-08-16T14:44:19.781Z,11.05
2022-08-16T14:46:46.706Z,9.57
2022-08-16T14:49:14.334Z,12.20
2022-08-16T14:51:40.875Z,10.15
2022-08-16T14:54:11.356Z,10.35
2022-08-16T14:56:42.446Z,10.35
2022-08-16T14:59:10.850Z,12.07
2022-08-16T15:01:58.920Z,10.77
2022-08-16T15:04:32.601Z,14.55
2022-08-16T15:07:11.063Z,10.40
2022-08-16T15:09:44.598Z,10.43
2022-08-16T15:12:31.311Z,10.45
2022-08-16T15:15:12.080Z,9.65
2022-08-16T15:17:41.425Z,9.73
2022-08-16T15:20:09.166Z,9.55
2022-08-16T15:22:45.875Z,10.25
2022-08-16T15:25:22.541Z,10.40
2022-08-16T15:27:58.741Z,14.57
2022-08-16T15:30:57.608Z,14.13
2022-08-16T15:33:19.616Z,10.98
2022-08-16T15:35:49.910Z,11.65
2022-08-16T15:38:57.585Z,10.95
2022-08-16T15:41:04.713Z,10.43
2022-08-16T15:43:39.181Z,14.57
2022-08-16T15:46:35.719Z,13.00
2022-08-16T15:49:09.585Z,10.98
2022-08-16T15:51:36.975Z,10.00
2022-08-16T15:54:21.087Z,10.18
2022-08-16T15:56:54.996Z,11.15
2022-08-16T15:59:23.637Z,11.05
2022-08-16T16:01:51.436Z,10.90
2022-08-16T16:04:22.820Z,8.93
2022-08-16T16:06:54.857Z,10.02
2022-08-16T16:09:36.996Z,8.93
2022-08-16T16:12:16.226Z,9.57
2022-08-16T16:14:52.102Z,9.25
2022-08-16T16:17:18.721Z,11.20
2022-08-16T16:19:45.340Z,7.88
2022-08-16T16:22:17.375Z,9.82
2022-08-16T16:24:47.050Z,10.52
2022-08-16T16:27:14.081Z,8.32
2022-08-16T16:29:42.673Z,9.93
2022-08-16T16:32:13.369Z,7.70
2022-08-16T16:34:43.172Z,7.90
2022-08-16T16:37:10.369Z,8.73
2022-08-16T16:39:37.695Z,9.40
2022-08-16T16:42:05.138Z,7.90
2022-08-16T16:44:36.251Z,8.27
2022-08-16T16:47:03.822Z,7.95
2022-08-16T16:49:32.862Z,8.18
2022-08-16T16:52:06.548Z,7.95
2022-08-16T16:54:35.521Z,7.93
2022-08-16T16:57:02.523Z,9.38
2022-08-16T16:59:29.272Z,9.27
2022-08-16T17:02:39.422Z,9.60
2022-08-16T17:04:45.788Z,8.43
2022-08-16T17:07:14.154Z,9.00
2022-08-16T17:09:41.448Z,7.78
2022-08-16T17:12:10.121Z,8.65
2022-08-16T17:14:42.679Z,7.78
2022-08-16T17:17:09.847Z,7.90
2022-08-16T17:19:41.242Z,7.60
2022-08-16T17:22:19.777Z,9.18
2022-08-16T17:24:50.916Z,7.13
2022-08-16T17:27:32.373Z,8.60
2022-08-16T17:30:15.663Z,7.93
2022-08-16T17:32:47.961Z,8.60
2022-08-16T17:35:19.038Z,7.25
2022-08-16T17:37:51.170Z,8.40
2022-08-16T17:40:25.696Z,7.77
2022-08-16T17:43:13.397Z,9.07
2022-08-16T17:45:41.752Z,10.35
2022-08-16T17:48:08.646Z,7.10
2022-08-16T17:50:35.975Z,7.82
2022-08-16T17:53:02.941Z,7.90
2022-08-16T17:55:33.531Z,10.18
2022-08-16T17:58:00.432Z,10.68
2022-08-16T18:00:29.742Z,7.80
2022-08-16T18:03:00.199Z,7.82
2022-08-16T18:05:29.828Z,9.65
2022-08-16T18:07:56.504Z,7.18
2022-08-16T18:10:33.044Z,8.13
2022-08-16T18:13:03.051Z,8.63
2022-08-16T18:15:30.917Z,10.15
2022-08-16T18:17:57.441Z,8.05
2022-08-16T18:20:43.237Z,8.40
2022-08-16T18:23:15.049Z,8.48
2022-08-16T18:25:47.829Z,10.23
2022-08-16T18:28:14.889Z,8.23
2022-08-16T18:30:41.470Z,8.85
2022-08-16T18:33:08.589Z,8.30
2022-08-16T18:35:35.496Z,8.40
2022-08-16T18:38:02.005Z,8.30
2022-08-16T18:40:29.250Z,9.25
2022-08-16T18:43:04.612Z,9.13
2022-08-16T18:45:35.729Z,9.02
2022-08-16T18:48:04.614Z,8.63
2022-08-16T18:51:04.409Z,8.25
2022-08-16T18:53:21.542Z,8.73
2022-08-16T18:55:48.975Z,9.50
2022-08-16T18:58:16.091Z,8.73
2022-08-16T19:00:56.731Z,8.73
2022-08-16T19:03:30.166Z,9.48
2022-08-16T19:06:10.489Z,11.25
2022-08-16T19:08:40.090Z,9.23
2022-08-16T19:11:10.397Z,10.10
2022-08-16T19:13:40.249Z,11.07
2022-08-16T19:16:07.206Z,8.43
2022-08-16T19:18:36.645Z,9.90
2022-08-16T19:21:05.024Z,9.05
2022-08-16T19:23:35.753Z,9.15
2022-08-16T19:26:24.951Z,10.82
2022-08-16T19:28:58.775Z,11.48
2022-08-16T19:31:29.359Z,11.15
2022-08-16T19:33:56.869Z,11.93
2022-08-16T19:36:36.723Z,11.60
2022-08-16T19:39:13.931Z,11.18
2022-08-16T19:41:43.368Z,9.60
2022-08-16T19:44:10.112Z,10.23
2022-08-16T19:46:37.969Z,10.18
2022-08-16T19:49:05.165Z,10.35
2022-08-16T19:51:32.192Z,9.05
2022-08-16T19:53:58.740Z,9.70
2022-08-16T19:56:26.597Z,10.90
2022-08-16T19:59:18.223Z,11.13
2022-08-16T20:01:44.261Z,12.45
2022-08-16T20:04:14.710Z,9.23
2022-08-16T20:06:42.219Z,9.10
2022-08-16T20:09:10.523Z,9.25
2022-08-16T20:11:41.645Z,10.38
2022-08-16T20:14:08.121Z,10.35
2022-08-16T20:16:34.609Z,10.73
2022-08-16T20:19:01.192Z,9.45
2022-08-16T20:21:28.380Z,11.10
2022-08-16T20:24:09.960Z,10.38
2022-08-16T20:26:41.394Z,11.32
2022-08-16T20:29:07.859Z,9.07
2022-08-16T20:31:34.306Z,10.05
2022-08-16T20:34:02.127Z,11.20
2022-08-16T20:36:29.447Z,9.95
2022-08-16T20:38:59.700Z,11.73
2022-08-16T20:41:27.105Z,11.77
2022-08-16T20:43:55.096Z,10.18
2022-08-16T20:46:22.020Z,11.25
2022-08-16T20:48:48.623Z,8.93
2022-08-16T20:51:15.493Z,11.60
2022-08-16T20:53:43.635Z,10.35
2022-08-16T20:56:11.732Z,11.48
2022-08-16T20:58:38.495Z,9.80
2022-08-16T21:01:06.924Z,11.68
2022-08-16T21:03:33.728Z,10.25
2022-08-16T21:06:03.302Z,9.25
2022-08-16T21:08:53.174Z,9.90
2022-08-16T21:11:16.883Z,10.27
2022-08-16T21:13:43.415Z,9.30
2022-08-16T21:16:09.860Z,9.57
2022-08-16T21:18:36.319Z,10.63
2022-08-16T21:21:02.792Z,12.48
2022-08-16T21:23:29.223Z,9.48
2022-08-16T21:25:57.890Z,9.63
2022-08-16T21:28:41.959Z,11.70
2022-08-16T21:31:14.890Z,9.10
2022-08-16T21:33:43.047Z,9.70
2022-08-16T21:36:10.875Z,9.57
2022-08-16T21:38:37.632Z,11.38
2022-08-16T21:41:07.329Z,12.35
2022-08-16T21:43:34.681Z,10.38
2022-08-16T21:46:01.970Z,9.77
2022-08-16T21:48:34.094Z,9.43
2022-08-16T21:51:05.016Z,9.48
2022-08-16T21:53:31.895Z,11.65
2022-08-16T21:55:59.450Z,10.88
2022-08-16T21:58:26.234Z,11.60
2022-08-16T22:00:52.921Z,10.35
2022-08-16T22:03:19.583Z,9.65
2022-08-16T22:06:11.747Z,10.98
2022-08-16T22:08:35.744Z,9.60
2022-08-16T22:11:13.209Z,11.20
2022-08-16T22:13:40.263Z,11.30
2022-08-16T22:16:08.666Z,9.88
2022-08-16T22:18:35.118Z,9.27
2022-08-16T22:21:01.637Z,10.68
2022-08-16T22:23:28.126Z,9.68
2022-08-16T22:25:56.095Z,10.80
2022-08-16T22:28:23.934Z,10.55
2022-08-16T22:30:51.202Z,10.30
2022-08-16T22:33:21.098Z,11.02
2022-08-16T22:35:51.043Z,10.55
2022-08-16T22:38:55.171Z,10.80
2022-08-16T22:41:06.251Z,10.25
2022-08-16T22:43:33.063Z,11.07
2022-08-16T22:45:59.557Z,11.32
2022-08-16T22:48:26.120Z,10.57
2022-08-16T22:50:52.933Z,12.02
2022-08-16T22:53:19.705Z,12.40
2022-08-16T22:55:46.913Z,10.75
2022-08-16T22:58:13.942Z,10.70
2022-08-16T23:00:41.315Z,10.57
2022-08-16T23:03:16.757Z,9.73
2022-08-16T23:05:55.823Z,10.82
2022-08-16T23:08:38.817Z,10.90
2022-08-16T23:11:08.812Z,10.98
2022-08-16T23:13:35.290Z,11.88
2022-08-16T23:16:10.983Z,10.93
2022-08-16T23:18:39.540Z,11.75
2022-08-16T23:21:09.709Z,10.95
2022-08-16T23:23:37.578Z,10.82
2022-08-16T23:26:46.316Z,11.18
2022-08-16T23:28:52.185Z,11.23
2022-08-16T23:31:18.803Z,11.93
2022-08-16T23:33:45.923Z,11.10
2022-08-16T23:36:12.942Z,10.80
2022-08-16T23:38:39.786Z,10.73
2022-08-16T23:41:11.365Z,10.32
2022-08-16T23:43:41.777Z,11.60
2022-08-16T23:46:13.786Z,10.57
2022-08-16T23:50:01.599Z,9.77
2022-08-16T23:51:28.908Z,10.15
2022-08-16T23:53:55.821Z,9.50
2022-08-16T23:56:22.503Z,10.10
2022-08-16T23:58:54.402Z,10.35
